createdAt,value
2018-06-13T00:01:42.451Z,4.30
2018-06-13T00:04:10.494Z,3.50
2018-06-13T00:06:38.556Z,4.17
2018-06-13T00:09:08.275Z,3.47
2018-06-13T00:11:36.415Z,4.10
2018-06-13T00:14:04.684Z,3.80
2018-06-13T00:16:32.919Z,3.43
2018-06-13T00:19:01.508Z,3.30
2018-06-13T00:21:29.647Z,3.13
2018-06-13T00:23:57.758Z,3.60
2018-06-13T00:26:25.976Z,3.07
2018-06-13T00:28:54.212Z,3.67
2018-06-13T00:31:22.370Z,3.00
2018-06-13T00:33:50.424Z,2.97
2018-06-13T00:36:18.478Z,3.00
2018-06-13T00:38:46.546Z,3.30
2018-06-13T00:41:14.592Z,3.40
2018-06-13T00:43:42.648Z,3.10
2018-06-13T00:46:10.751Z,3.50
2018-06-13T00:48:38.883Z,3.33
2018-06-13T00:51:07.037Z,3.33
2018-06-13T00:53:35.190Z,3.37
2018-06-13T00:56:14.767Z,2.97
2018-06-13T00:58:42.815Z,3.20
2018-06-13T01:01:10.880Z,3.13
2018-06-13T01:03:38.956Z,3.20
2018-06-13T01:06:07.058Z,3.73
2018-06-13T01:08:35.412Z,3.20
2018-06-13T01:11:03.455Z,3.27
2018-06-13T01:13:31.498Z,3.67
2018-06-13T01:15:59.568Z,3.80
2018-06-13T01:18:27.651Z,3.60
2018-06-13T01:20:55.711Z,3.73
2018-06-13T01:23:23.799Z,3.73
2018-06-13T01:25:51.859Z,3.87
2018-06-13T01:28:19.991Z,4.23
2018-06-13T01:30:48.101Z,3.53
2018-06-13T01:33:16.148Z,3.73
2018-06-13T01:35:44.193Z,3.23
2018-06-13T01:38:12.265Z,4.33
2018-06-13T01:40:40.323Z,3.90
2018-06-13T01:43:08.448Z,3.90
2018-06-13T01:45:36.583Z,4.33
2018-06-13T01:48:04.847Z,3.50
2018-06-13T01:50:32.997Z,3.40
2018-06-13T01:53:01.217Z,3.10
2018-06-13T01:55:29.555Z,3.20
2018-06-13T01:57:57.703Z,3.77
2018-06-13T02:00:25.804Z,3.40
2018-06-13T02:02:53.994Z,2.83
2018-06-13T02:05:22.054Z,4.10
2018-06-13T02:07:50.164Z,3.30
2018-06-13T02:10:18.235Z,3.63
2018-06-13T02:12:46.287Z,4.33
2018-06-13T02:15:14.376Z,4.10
2018-06-13T02:17:42.452Z,3.73
2018-06-13T02:20:10.540Z,3.97
2018-06-13T02:22:38.629Z,4.27
2018-06-13T02:25:06.841Z,4.07
2018-06-13T02:27:35.276Z,4.33
2018-06-13T02:30:03.537Z,4.20
2018-06-13T02:32:32.083Z,4.17
2018-06-13T02:35:00.341Z,4.43
2018-06-13T02:37:28.599Z,4.50
2018-06-13T02:39:56.749Z,5.10
2018-06-13T02:42:24.829Z,4.97
2018-06-13T02:44:53.105Z,4.13
2018-06-13T02:47:21.175Z,4.50
2018-06-13T02:49:49.250Z,4.60
2018-06-13T02:52:17.322Z,4.23
2018-06-13T02:54:45.387Z,4.20
2018-06-13T02:57:13.488Z,4.17
2018-06-13T02:59:41.575Z,3.83
2018-06-13T03:02:09.717Z,5.10
2018-06-13T03:04:37.847Z,5.20
2018-06-13T03:07:06.136Z,4.57
2018-06-13T03:09:34.325Z,4.90
2018-06-13T03:12:02.537Z,4.37
2018-06-13T03:14:30.947Z,4.63
2018-06-13T03:16:59.073Z,4.37
2018-06-13T03:19:27.205Z,4.20
2018-06-13T03:21:55.263Z,4.53
2018-06-13T03:24:23.336Z,4.60
2018-06-13T03:26:51.392Z,4.20
2018-06-13T03:29:19.559Z,4.67
2018-06-13T03:31:47.599Z,4.70
2018-06-13T03:34:15.660Z,4.50
2018-06-13T03:36:43.719Z,4.70
2018-06-13T03:39:11.772Z,4.60
2018-06-13T03:41:39.873Z,4.33
2018-06-13T03:44:08.032Z,3.77
2018-06-13T03:46:36.175Z,4.50
2018-06-13T03:49:04.373Z,4.57
2018-06-13T03:51:32.545Z,5.40
2018-06-13T03:54:00.993Z,4.83
2018-06-13T03:56:29.112Z,4.53
2018-06-13T03:58:57.178Z,4.40
2018-06-13T04:01:25.224Z,3.97
2018-06-13T04:03:53.272Z,4.77
2018-06-13T04:06:21.320Z,4.63
2018-06-13T04:08:49.367Z,4.37
2018-06-13T04:11:17.416Z,4.43
2018-06-13T04:13:45.480Z,4.20
2018-06-13T04:16:13.532Z,4.07
2018-06-13T04:18:41.627Z,3.87
2018-06-13T04:21:09.663Z,4.10
2018-06-13T04:23:37.708Z,4.63
2018-06-13T04:26:05.790Z,4.80
2018-06-13T04:28:33.824Z,5.83
2018-06-13T04:31:01.896Z,5.27
2018-06-13T04:33:29.936Z,5.73
2018-06-13T04:35:57.995Z,6.00
2018-06-13T04:38:26.044Z,5.17
2018-06-13T04:40:54.083Z,5.13
2018-06-13T04:43:22.148Z,5.47
2018-06-13T04:45:50.232Z,5.77
2018-06-13T04:48:18.907Z,6.10
2018-06-13T04:50:47.007Z,5.20
2018-06-13T04:53:15.070Z,5.87
2018-06-13T04:55:43.128Z,5.23
2018-06-13T04:58:11.192Z,5.87
2018-06-13T05:00:39.228Z,5.43
2018-06-13T05:03:07.355Z,5.73
2018-06-13T05:05:35.433Z,6.43
2018-06-13T05:08:03.479Z,6.53
2018-06-13T05:10:31.541Z,6.27
2018-06-13T05:12:59.587Z,6.63
2018-06-13T05:15:27.852Z,5.57
2018-06-13T05:17:55.922Z,5.70
2018-06-13T05:20:23.966Z,5.87
2018-06-13T05:22:52.008Z,5.87
2018-06-13T05:25:20.136Z,5.70
2018-06-13T05:27:48.207Z,5.67
2018-06-13T05:30:16.280Z,5.30
2018-06-13T05:32:44.339Z,5.03
2018-06-13T05:35:12.382Z,5.10
2018-06-13T05:37:40.451Z,4.73
2018-06-13T05:40:08.567Z,4.57
2018-06-13T05:42:36.736Z,4.00
2018-06-13T05:45:04.997Z,4.23
2018-06-13T05:47:33.087Z,3.87
2018-06-13T05:50:01.132Z,4.10
2018-06-13T05:52:29.282Z,3.40
2018-06-13T05:54:57.690Z,3.27
2018-06-13T05:57:25.703Z,3.53
2018-06-13T05:59:53.772Z,3.33
2018-06-13T06:02:21.815Z,3.60
2018-06-13T06:04:49.877Z,3.60
2018-06-13T06:07:17.911Z,3.20
2018-06-13T06:09:45.960Z,3.73
2018-06-13T06:12:14.022Z,3.73
2018-06-13T06:14:42.160Z,3.63
2018-06-13T06:17:10.220Z,4.10
2018-06-13T06:19:38.337Z,3.00
2018-06-13T06:22:07.249Z,3.23
2018-06-13T06:24:35.409Z,4.07
2018-06-13T06:27:03.614Z,4.03
2018-06-13T06:29:31.858Z,3.70
2018-06-13T06:32:00.207Z,3.23
2018-06-13T06:34:28.279Z,3.13
2018-06-13T06:36:56.378Z,3.67
2018-06-13T06:39:24.562Z,4.10
2018-06-13T06:41:52.596Z,3.87
2018-06-13T06:44:20.692Z,3.20
2018-06-13T06:46:48.728Z,3.33
2018-06-13T06:49:16.800Z,3.50
2018-06-13T06:51:45.717Z,4.13
2018-06-13T06:54:13.804Z,3.90
2018-06-13T06:56:41.848Z,3.67
2018-06-13T06:59:09.953Z,4.23
2018-06-13T07:01:38.090Z,4.87
2018-06-13T07:04:06.322Z,4.83
2018-06-13T07:06:34.458Z,3.93
2018-06-13T07:09:02.811Z,4.60
2018-06-13T07:11:31.083Z,4.57
2018-06-13T07:13:59.267Z,4.37
2018-06-13T07:16:27.584Z,4.77
2018-06-13T07:18:55.644Z,4.80
2018-06-13T07:21:23.956Z,5.33
2018-06-13T07:23:51.984Z,5.20
2018-06-13T07:26:20.028Z,5.10
2018-06-13T07:28:48.091Z,4.80
2018-06-13T07:31:16.127Z,4.47
2018-06-13T07:33:44.205Z,4.17
2018-06-13T07:36:12.262Z,4.07
2018-06-13T07:38:40.353Z,4.23
2018-06-13T07:41:08.400Z,4.47
2018-06-13T07:43:36.510Z,4.67
2018-06-13T07:46:04.584Z,4.17
2018-06-13T07:48:32.636Z,4.03
2018-06-13T07:51:00.758Z,4.40
2018-06-13T07:53:28.831Z,4.20
2018-06-13T07:55:56.864Z,4.20
2018-06-13T07:58:25.008Z,4.03
2018-06-13T08:00:53.071Z,4.13
2018-06-13T08:03:21.119Z,3.93
2018-06-13T08:05:49.157Z,3.73
2018-06-13T08:08:17.294Z,3.73
2018-06-13T08:10:45.292Z,4.37
2018-06-13T08:13:13.346Z,3.73
2018-06-13T08:15:41.494Z,4.00
2018-06-13T08:18:09.552Z,4.30
2018-06-13T08:20:37.768Z,4.37
2018-06-13T08:23:05.831Z,3.67
2018-06-13T08:25:33.855Z,3.67
2018-06-13T08:28:01.908Z,4.10
2018-06-13T08:30:29.960Z,3.23
2018-06-13T08:32:58.035Z,3.43
2018-06-13T08:35:26.102Z,2.93
2018-06-13T08:37:54.160Z,3.07
2018-06-13T08:40:22.211Z,3.03
2018-06-13T08:42:50.272Z,2.97
2018-06-13T08:45:18.347Z,2.80
2018-06-13T08:47:46.398Z,2.80
2018-06-13T08:50:14.449Z,2.63
2018-06-13T08:52:42.636Z,3.00
2018-06-13T08:55:10.677Z,3.13
2018-06-13T08:57:38.779Z,2.73
2018-06-13T09:00:06.975Z,2.97
2018-06-13T09:02:35.076Z,2.90
2018-06-13T09:05:03.243Z,2.50
2018-06-13T09:07:31.511Z,2.73
2018-06-13T09:09:59.619Z,3.43
2018-06-13T09:12:27.692Z,3.20
2018-06-13T09:14:55.782Z,3.43
2018-06-13T09:17:23.821Z,3.83
2018-06-13T09:19:51.864Z,3.07
2018-06-13T09:22:19.918Z,2.77
2018-06-13T09:24:47.959Z,2.87
2018-06-13T09:27:16.012Z,3.30
2018-06-13T09:29:44.055Z,2.87
2018-06-13T09:32:12.116Z,3.02
2018-06-13T09:34:40.157Z,3.17
2018-06-13T09:37:08.191Z,3.10
2018-06-13T09:39:36.248Z,3.33
2018-06-13T09:42:04.295Z,3.07
2018-06-13T09:44:32.399Z,2.83
2018-06-13T09:47:06.901Z,4.10
2018-06-13T09:49:28.640Z,3.80
2018-06-13T09:51:56.775Z,2.93
2018-06-13T09:54:24.808Z,3.60
2018-06-13T09:56:53.199Z,2.90
2018-06-13T09:59:21.565Z,3.10
2018-06-13T10:01:55.648Z,2.13
2018-06-13T10:04:23.698Z,3.30
2018-06-13T10:06:51.858Z,3.13
2018-06-13T10:09:19.941Z,2.93
2018-06-13T10:11:48.028Z,3.10
2018-06-13T10:14:16.129Z,3.27
2018-06-13T10:16:44.200Z,3.43
2018-06-13T10:19:12.262Z,3.23
2018-06-13T10:21:40.343Z,3.27
2018-06-13T10:24:08.560Z,2.93
2018-06-13T10:26:37.004Z,4.53
2018-06-13T10:29:05.209Z,4.13
2018-06-13T10:31:33.477Z,3.83
2018-06-13T10:34:02.504Z,3.33
2018-06-13T10:36:31.376Z,4.37
2018-06-13T10:38:59.597Z,4.57
2018-06-13T10:41:27.793Z,4.03
2018-06-13T10:43:57.170Z,4.60
2018-06-13T10:46:27.484Z,3.90
2018-06-13T10:48:55.734Z,3.53
2018-06-13T10:51:23.840Z,3.10
2018-06-13T10:53:51.910Z,3.33
2018-06-13T10:56:19.953Z,3.77
2018-06-13T10:58:47.996Z,3.30
2018-06-13T11:01:16.048Z,3.20
2018-06-13T11:03:44.087Z,2.97
2018-06-13T11:06:12.159Z,2.90
2018-06-13T11:08:40.345Z,3.60
2018-06-13T11:11:08.435Z,2.83
2018-06-13T11:13:36.521Z,3.00
2018-06-13T11:16:04.635Z,3.40
2018-06-13T11:18:32.903Z,4.03
2018-06-13T11:21:00.955Z,3.37
2018-06-13T11:23:29.017Z,4.20
2018-06-13T11:25:57.109Z,5.60
2018-06-13T11:28:25.163Z,4.90
2018-06-13T11:30:53.231Z,4.67
2018-06-13T11:33:21.292Z,4.97
2018-06-13T11:35:49.388Z,4.03
2018-06-13T11:38:17.444Z,3.47
2018-06-13T11:40:45.531Z,3.67
2018-06-13T11:43:14.090Z,3.07
2018-06-13T11:45:42.214Z,3.00
2018-06-13T11:48:10.340Z,3.50
2018-06-13T11:50:38.554Z,2.77
2018-06-13T11:53:06.865Z,2.80
2018-06-13T11:55:35.016Z,2.73
2018-06-13T11:58:03.085Z,3.10
2018-06-13T12:00:33.266Z,2.93
2018-06-13T12:03:01.378Z,2.80
2018-06-13T12:05:29.460Z,3.03
2018-06-13T12:07:57.508Z,2.67
2018-06-13T12:10:26.297Z,2.90
2018-06-13T12:12:54.365Z,3.27
2018-06-13T12:15:22.452Z,2.33
2018-06-13T12:17:50.825Z,2.60
2018-06-13T12:20:18.924Z,2.50
2018-06-13T12:22:47.036Z,2.33
2018-06-13T12:25:15.109Z,3.22
2018-06-13T12:27:43.165Z,2.75
2018-06-13T12:30:11.263Z,3.17
2018-06-13T12:32:39.327Z,5.20
2018-06-13T12:35:07.523Z,4.00
2018-06-13T12:37:35.756Z,3.98
2018-06-13T12:40:05.211Z,3.47
2018-06-13T12:42:33.464Z,4.22
2018-06-13T12:45:01.764Z,4.28
2018-06-13T12:47:29.940Z,4.00
2018-06-13T12:49:58.084Z,3.47
2018-06-13T12:52:26.183Z,3.55
2018-06-13T12:54:54.224Z,3.22
2018-06-13T12:57:22.285Z,3.87
2018-06-13T12:59:50.331Z,3.45
2018-06-13T13:02:18.368Z,3.55
2018-06-13T13:04:46.446Z,3.37
2018-06-13T13:07:14.503Z,3.00
2018-06-13T13:09:42.560Z,2.70
2018-06-13T13:12:10.968Z,3.47
2018-06-13T13:14:39.043Z,3.50
2018-06-13T13:17:07.268Z,3.35
2018-06-13T13:19:35.558Z,3.77
2018-06-13T13:22:04.071Z,3.77
2018-06-13T13:24:32.443Z,3.52
2018-06-13T13:27:00.830Z,3.87
2018-06-13T13:29:28.921Z,3.05
2018-06-13T13:31:57.012Z,3.90
2018-06-13T13:34:25.115Z,3.40
2018-06-13T13:36:53.173Z,3.62
2018-06-13T13:39:21.534Z,3.83
2018-06-13T13:41:49.636Z,4.17
2018-06-13T13:44:17.927Z,3.55
2018-06-13T13:46:45.988Z,5.92
2018-06-13T13:49:14.072Z,3.83
2018-06-13T13:51:42.180Z,4.50
2018-06-13T13:54:10.348Z,3.92
2018-06-13T13:56:38.430Z,4.15
2018-06-13T13:59:06.610Z,5.37
2018-06-13T14:01:34.769Z,4.08
2018-06-13T14:04:03.016Z,5.40
2018-06-13T14:06:31.297Z,3.43
2018-06-13T14:08:59.387Z,5.40
2018-06-13T14:11:27.480Z,3.10
2018-06-13T14:13:55.539Z,3.30
2018-06-13T14:16:23.587Z,4.07
2018-06-13T14:18:51.674Z,3.07
2018-06-13T14:21:19.724Z,2.90
2018-06-13T14:23:47.786Z,3.55
2018-06-13T14:26:15.883Z,2.95
2018-06-13T14:28:43.928Z,2.95
2018-06-13T14:31:11.971Z,3.02
2018-06-13T14:33:40.068Z,3.00
2018-06-13T14:36:08.145Z,3.22
2018-06-13T14:38:36.291Z,3.45
2018-06-13T14:41:04.384Z,3.12
2018-06-13T14:43:32.572Z,3.20
2018-06-13T14:46:01.144Z,3.90
2018-06-13T14:48:29.271Z,3.83
2018-06-13T14:50:57.337Z,3.98
2018-06-13T14:53:25.407Z,3.55
2018-06-13T14:55:58.780Z,3.60
2018-06-13T14:58:26.824Z,3.33
2018-06-13T15:00:54.891Z,3.67
2018-06-13T15:03:22.969Z,7.22
2018-06-13T15:05:51.036Z,3.70
2018-06-13T15:08:19.129Z,3.98
2018-06-13T15:10:47.128Z,4.25
2018-06-13T15:13:15.712Z,3.62
2018-06-13T15:15:43.896Z,3.60
2018-06-13T15:18:11.934Z,7.33
2018-06-13T15:20:39.993Z,3.85
2018-06-13T15:23:08.054Z,3.27
2018-06-13T15:25:36.379Z,2.80
2018-06-13T15:28:05.505Z,4.20
2018-06-13T15:30:33.571Z,2.87
2018-06-13T15:33:01.634Z,2.90
2018-06-13T15:35:29.677Z,3.65
2018-06-13T15:37:59.287Z,6.10
2018-06-13T15:40:27.679Z,3.00
2018-06-13T15:42:55.928Z,4.33
2018-06-13T15:45:24.505Z,3.90
2018-06-13T15:47:52.596Z,3.30
2018-06-13T15:50:21.088Z,2.90
2018-06-13T15:52:49.151Z,4.00
2018-06-13T15:55:17.175Z,3.40
2018-06-13T15:57:45.900Z,2.70
2018-06-13T16:00:14.431Z,2.75
2018-06-13T16:02:43.357Z,2.80
2018-06-13T16:05:11.561Z,3.22
2018-06-13T16:07:39.710Z,2.67
2018-06-13T16:10:07.783Z,2.62
2018-06-13T16:12:35.930Z,3.30
2018-06-13T16:15:04.192Z,3.17
2018-06-13T16:17:32.537Z,3.75
2018-06-13T16:20:02.021Z,3.08
2018-06-13T16:22:30.494Z,2.70
2018-06-13T16:24:58.576Z,3.47
2018-06-13T16:27:27.182Z,3.70
2018-06-13T16:29:56.692Z,3.25
2018-06-13T16:32:24.810Z,3.42
2018-06-13T16:34:52.851Z,3.33
2018-06-13T16:37:20.965Z,3.22
2018-06-13T16:39:49.381Z,2.83
2018-06-13T16:42:18.007Z,3.35
2018-06-13T16:44:46.586Z,2.80
2018-06-13T16:47:15.307Z,2.65
2018-06-13T16:49:43.732Z,3.15
2018-06-13T16:52:23.195Z,3.05
2018-06-13T16:55:02.592Z,3.30
2018-06-13T16:57:30.714Z,2.65
2018-06-13T16:59:59.191Z,3.17
2018-06-13T17:02:27.356Z,3.13
2018-06-13T17:04:55.396Z,3.00
2018-06-13T17:07:23.501Z,2.87
2018-06-13T17:09:51.815Z,2.95
2018-06-13T17:12:19.874Z,2.97
2018-06-13T17:14:47.924Z,2.92
2018-06-13T17:17:16.012Z,2.98
2018-06-13T17:19:44.063Z,3.00
2018-06-13T17:22:12.127Z,3.20
2018-06-13T17:24:40.203Z,2.57
2018-06-13T17:27:08.268Z,2.12
2018-06-13T17:29:36.365Z,2.53
2018-06-13T17:32:04.425Z,2.73
2018-06-13T17:34:32.498Z,2.70
2018-06-13T17:37:00.682Z,2.70
2018-06-13T17:39:28.842Z,2.87
2018-06-13T17:41:57.216Z,3.03
2018-06-13T17:44:25.305Z,3.00
2018-06-13T17:46:53.369Z,2.70
2018-06-13T17:49:21.463Z,3.27
2018-06-13T17:51:49.520Z,3.35
2018-06-13T17:54:17.613Z,2.97
2018-06-13T17:56:45.679Z,2.63
2018-06-13T17:59:13.745Z,2.80
2018-06-13T18:01:41.791Z,2.30
2018-06-13T18:04:09.904Z,2.50
2018-06-13T18:06:37.944Z,2.10
2018-06-13T18:09:07.809Z,2.50
2018-06-13T18:11:36.218Z,2.90
2018-06-13T18:14:04.279Z,2.17
2018-06-13T18:16:32.427Z,2.53
2018-06-13T18:19:00.548Z,2.60
2018-06-13T18:21:31.636Z,2.57
2018-06-13T18:23:59.809Z,2.70
2018-06-13T18:26:27.906Z,2.23
2018-06-13T18:28:55.988Z,2.87
2018-06-13T18:31:24.269Z,2.40
2018-06-13T18:33:52.804Z,2.30
2018-06-13T18:36:20.956Z,2.43
2018-06-13T18:38:49.055Z,2.57
2018-06-13T18:41:17.140Z,2.50
2018-06-13T18:43:45.229Z,2.90
2018-06-13T18:46:13.304Z,3.07
2018-06-13T18:48:41.450Z,2.80
2018-06-13T18:51:09.638Z,2.90
2018-06-13T18:53:37.708Z,3.10
2018-06-13T18:56:05.832Z,2.50
2018-06-13T18:58:34.199Z,2.40
2018-06-13T19:01:02.689Z,2.80
2018-06-13T19:03:30.772Z,2.80
2018-06-13T19:05:58.904Z,2.93
2018-06-13T19:08:27.012Z,2.50
2018-06-13T19:10:55.092Z,3.03
2018-06-13T19:13:23.196Z,2.67
2018-06-13T19:15:51.272Z,2.57
2018-06-13T19:18:19.345Z,2.87
2018-06-13T19:20:47.477Z,2.70
2018-06-13T19:23:15.551Z,2.70
2018-06-13T19:25:44.283Z,2.93
2018-06-13T19:28:12.384Z,2.70
2018-06-13T19:30:40.448Z,2.87
2018-06-13T19:33:08.654Z,3.30
2018-06-13T19:35:36.727Z,2.87
2018-06-13T19:38:04.804Z,2.73
2018-06-13T19:40:33.335Z,2.67
2018-06-13T19:43:01.610Z,3.20
2018-06-13T19:45:29.791Z,2.73
2018-06-13T19:48:03.299Z,2.67
2018-06-13T19:50:31.443Z,2.40
2018-06-13T19:53:04.961Z,2.90
2018-06-13T19:55:38.536Z,3.13
2018-06-13T19:58:06.756Z,3.23
2018-06-13T20:00:34.820Z,2.73
2018-06-13T20:03:08.368Z,2.90
2018-06-13T20:05:40.056Z,2.97
2018-06-13T20:08:08.149Z,3.60
2018-06-13T20:10:36.212Z,3.80
2018-06-13T20:13:09.978Z,3.30
2018-06-13T20:15:43.310Z,4.70
2018-06-13T20:19:14.626Z,4.90
2018-06-13T20:21:42.710Z,4.70
2018-06-13T20:24:10.804Z,4.00
2018-06-13T20:26:44.336Z,3.07
2018-06-13T20:29:17.692Z,4.73
2018-06-13T20:31:47.125Z,4.13
2018-06-13T20:34:15.260Z,4.50
2018-06-13T20:36:43.369Z,3.87
2018-06-13T20:39:12.198Z,4.07
2018-06-13T20:41:41.108Z,4.93
2018-06-13T20:44:09.913Z,4.40
2018-06-13T20:46:38.108Z,4.10
2018-06-13T20:49:06.165Z,3.77
2018-06-13T20:51:34.364Z,4.87
2018-06-13T20:54:02.439Z,3.67
2018-06-13T20:56:30.938Z,3.87
2018-06-13T20:58:59.112Z,3.33
2018-06-13T21:01:27.480Z,3.30
2018-06-13T21:03:55.743Z,4.07
2018-06-13T21:06:23.815Z,3.77
2018-06-13T21:08:51.888Z,3.60
2018-06-13T21:11:19.977Z,3.90
2018-06-13T21:13:48.283Z,3.90
2018-06-13T21:16:16.816Z,3.40
2018-06-13T21:18:44.869Z,3.90
2018-06-13T21:21:13.130Z,3.80
2018-06-13T21:23:41.179Z,4.47
2018-06-13T21:26:09.457Z,3.70
2018-06-13T21:28:37.555Z,3.40
2018-06-13T21:31:05.660Z,4.10
2018-06-13T21:33:33.763Z,4.47
2018-06-13T21:36:01.904Z,4.50
2018-06-13T21:38:30.042Z,5.23
2018-06-13T21:40:58.408Z,4.87
2018-06-13T21:43:26.533Z,5.83
2018-06-13T21:45:54.915Z,4.43
2018-06-13T21:48:23.062Z,4.20
2018-06-13T21:50:51.275Z,3.80
2018-06-13T21:53:19.494Z,4.50
2018-06-13T21:55:47.670Z,4.00
2018-06-13T21:58:15.771Z,4.20
2018-06-13T22:00:43.914Z,3.80
2018-06-13T22:03:11.982Z,4.07
2018-06-13T22:05:40.048Z,3.80
2018-06-13T22:08:08.143Z,4.40
2018-06-13T22:10:36.208Z,3.90
2018-06-13T22:13:04.308Z,5.03
2018-06-13T22:15:32.373Z,4.90
2018-06-13T22:18:00.420Z,4.93
2018-06-13T22:20:28.600Z,5.63
2018-06-13T22:22:56.795Z,5.50
2018-06-13T22:25:24.901Z,4.83
2018-06-13T22:27:52.986Z,5.97
2018-06-13T22:30:21.088Z,6.03
2018-06-13T22:32:49.416Z,5.97
2018-06-13T22:35:17.484Z,5.80
2018-06-13T22:37:45.545Z,5.90
2018-06-13T22:40:13.658Z,5.63
2018-06-13T22:42:41.710Z,6.67
2018-06-13T22:45:09.766Z,9.17
2018-06-13T22:47:37.874Z,7.23
2018-06-13T22:50:05.963Z,7.90
2018-06-13T22:52:34.057Z,8.23
2018-06-13T22:55:02.436Z,7.60
2018-06-13T22:57:30.564Z,7.13
2018-06-13T22:59:58.839Z,7.23
2018-06-13T23:02:27.030Z,7.40
2018-06-13T23:04:55.097Z,7.00
2018-06-13T23:07:23.225Z,5.50
2018-06-13T23:09:51.274Z,5.93
2018-06-13T23:12:19.352Z,6.20
2018-06-13T23:14:47.408Z,5.30
2018-06-13T23:17:15.478Z,5.60
2018-06-13T23:31:28.119Z,5.10
2018-06-13T23:33:56.172Z,4.90
2018-06-13T23:36:24.207Z,4.13
2018-06-13T23:38:52.279Z,4.80
2018-06-13T23:41:20.344Z,5.80
2018-06-13T23:43:48.422Z,5.10
2018-06-13T23:46:16.477Z,4.90
2018-06-13T23:48:44.556Z,4.97
2018-06-13T23:51:12.980Z,4.67
2018-06-13T23:53:41.046Z,5.03
2018-06-13T23:56:09.133Z,4.30
2018-06-13T23:58:37.228Z,5.07
